sensor_id;sensor_type;location;lat;lon;timestamp;P1;durP1;ratioP1;P2;durP2;ratioP2
17850;SDS011;9051;51.548;14.348;2022-08-19T00:01:47;14.80;;;13.57;;
17850;SDS011;9051;51.548;14.348;2022-08-19T00:04:22;15.32;;;13.93;;
17850;SDS011;9051;51.548;14.348;2022-08-19T00:06:56;15.93;;;14.52;;
17850;SDS011;9051;51.548;14.348;2022-08-19T00:09:28;15.68;;;14.23;;
17850;SDS011;9051;51.548;14.348;2022-08-19T00:12:00;16.70;;;15.20;;
17850;SDS011;9051;51.548;14.348;2022-08-19T00:14:34;16.85;;;15.32;;
17850;SDS011;9051;51.548;14.348;2022-08-19T00:17:08;16.63;;;15.07;;
17850;SDS011;9051;51.548;14.348;2022-08-19T00:19:40;17.08;;;15.38;;
17850;SDS011;9051;51.548;14.348;2022-08-19T00:22:12;14.50;;;13.20;;
17850;SDS011;9051;51.548;14.348;2022-08-19T00:24:44;15.52;;;13.93;;
17850;SDS011;9051;51.548;14.348;2022-08-19T00:27:17;15.80;;;14.40;;
17850;SDS011;9051;51.548;14.348;2022-08-19T00:29:50;15.25;;;13.88;;
17850;SDS011;9051;51.548;14.348;2022-08-19T00:32:22;16.98;;;15.38;;
17850;SDS011;9051;51.548;14.348;2022-08-19T00:34:54;15.38;;;14.15;;
17850;SDS011;9051;51.548;14.348;2022-08-19T00:37:26;15.38;;;13.85;;
17850;SDS011;9051;51.548;14.348;2022-08-19T00:39:58;15.60;;;14.10;;
17850;SDS011;9051;51.548;14.348;2022-08-19T00:42:30;16.00;;;14.40;;
17850;SDS011;9051;51.548;14.348;2022-08-19T00:45:04;15.73;;;14.18;;
17850;SDS011;9051;51.548;14.348;2022-08-19T00:47:42;15.73;;;14.10;;
17850;SDS011;9051;51.548;14.348;2022-08-19T00:50:16;15.30;;;13.80;;
17850;SDS011;9051;51.548;14.348;2022-08-19T00:52:50;15.65;;;14.02;;
17850;SDS011;9051;51.548;14.348;2022-08-19T00:55:24;15.65;;;14.25;;
17850;SDS011;9051;51.548;14.348;2022-08-19T00:57:59;16.67;;;15.20;;
17850;SDS011;9051;51.548;14.348;2022-08-19T01:00:35;16.00;;;14.50;;
17850;SDS011;9051;51.548;14.348;2022-08-19T01:03:09;15.82;;;14.38;;
17850;SDS011;9051;51.548;14.348;2022-08-19T01:05:42;15.85;;;14.45;;
17850;SDS011;9051;51.548;14.348;2022-08-19T01:08:16;16.33;;;14.73;;
17850;SDS011;9051;51.548;14.348;2022-08-19T01:10:51;15.80;;;14.30;;
17850;SDS011;9051;51.548;14.348;2022-08-19T01:13:25;15.75;;;14.23;;
17850;SDS011;9051;51.548;14.348;2022-08-19T01:16:02;16.10;;;14.60;;
17850;SDS011;9051;51.548;14.348;2022-08-19T01:18:36;15.98;;;14.48;;
17850;SDS011;9051;51.548;14.348;2022-08-19T01:21:12;15.15;;;13.85;;
17850;SDS011;9051;51.548;14.348;2022-08-19T01:23:51;14.95;;;13.60;;
17850;SDS011;9051;51.548;14.348;2022-08-19T01:26:24;16.42;;;14.70;;
17850;SDS011;9051;51.548;14.348;2022-08-19T01:28:57;16.02;;;14.27;;
17850;SDS011;9051;51.548;14.348;2022-08-19T01:31:31;14.95;;;13.65;;
17850;SDS011;9051;51.548;14.348;2022-08-19T01:34:02;15.48;;;13.98;;
17850;SDS011;9051;51.548;14.348;2022-08-19T01:36:36;16.95;;;15.40;;
17850;SDS011;9051;51.548;14.348;2022-08-19T01:39:11;16.52;;;14.88;;
17850;SDS011;9051;51.548;14.348;2022-08-19T01:41:45;16.08;;;14.57;;
17850;SDS011;9051;51.548;14.348;2022-08-19T01:44:17;16.73;;;15.02;;
17850;SDS011;9051;51.548;14.348;2022-08-19T01:46:50;16.77;;;15.10;;
17850;SDS011;9051;51.548;14.348;2022-08-19T01:49:23;16.17;;;14.68;;
17850;SDS011;9051;51.548;14.348;2022-08-19T01:51:56;16.55;;;14.95;;
17850;SDS011;9051;51.548;14.348;2022-08-19T01:54:32;16.38;;;14.88;;
17850;SDS011;9051;51.548;14.348;2022-08-19T01:57:05;15.70;;;14.10;;
17850;SDS011;9051;51.548;14.348;2022-08-19T01:59:41;16.20;;;14.77;;
17850;SDS011;9051;51.548;14.348;2022-08-19T02:02:15;15.82;;;14.40;;
17850;SDS011;9051;51.548;14.348;2022-08-19T02:04:47;16.92;;;15.23;;
17850;SDS011;9051;51.548;14.348;2022-08-19T02:07:20;16.65;;;14.93;;
17850;SDS011;9051;51.548;14.348;2022-08-19T02:09:54;15.82;;;14.45;;
17850;SDS011;9051;51.548;14.348;2022-08-19T02:12:26;16.17;;;14.77;;
17850;SDS011;9051;51.548;14.348;2022-08-19T02:14:58;17.27;;;15.57;;
17850;SDS011;9051;51.548;14.348;2022-08-19T02:17:31;15.77;;;14.38;;
17850;SDS011;9051;51.548;14.348;2022-08-19T02:20:03;16.77;;;15.23;;
17850;SDS011;9051;51.548;14.348;2022-08-19T02:22:36;16.23;;;14.48;;
17850;SDS011;9051;51.548;14.348;2022-08-19T02:25:10;16.23;;;14.73;;
17850;SDS011;9051;51.548;14.348;2022-08-19T02:27:43;15.98;;;14.50;;
17850;SDS011;9051;51.548;14.348;2022-08-19T02:30:15;15.98;;;14.50;;
17850;SDS011;9051;51.548;14.348;2022-08-19T02:32:47;15.85;;;14.45;;
17850;SDS011;9051;51.548;14.348;2022-08-19T02:35:19;17.02;;;15.30;;
17850;SDS011;9051;51.548;14.348;2022-08-19T02:37:51;16.13;;;14.65;;
17850;SDS011;9051;51.548;14.348;2022-08-19T02:40:38;17.38;;;15.68;;
17850;SDS011;9051;51.548;14.348;2022-08-19T02:43:10;15.93;;;14.52;;
17850;SDS011;9051;51.548;14.348;2022-08-19T02:45:42;17.83;;;16.08;;
17850;SDS011;9051;51.548;14.348;2022-08-19T02:48:15;16.40;;;14.77;;
17850;SDS011;9051;51.548;14.348;2022-08-19T02:50:48;17.17;;;15.43;;
17850;SDS011;9051;51.548;14.348;2022-08-19T02:53:26;17.05;;;15.43;;
17850;SDS011;9051;51.548;14.348;2022-08-19T02:56:00;17.98;;;16.08;;
17850;SDS011;9051;51.548;14.348;2022-08-19T02:58:32;17.52;;;15.93;;
17850;SDS011;9051;51.548;14.348;2022-08-19T03:01:03;17.50;;;15.90;;
17850;SDS011;9051;51.548;14.348;2022-08-19T03:03:35;17.52;;;15.68;;
17850;SDS011;9051;51.548;14.348;2022-08-19T03:06:08;18.10;;;16.15;;
17850;SDS011;9051;51.548;14.348;2022-08-19T03:08:44;18.27;;;16.48;;
17850;SDS011;9051;51.548;14.348;2022-08-19T03:11:19;17.83;;;16.23;;
17850;SDS011;9051;51.548;14.348;2022-08-19T03:13:53;17.20;;;15.40;;
17850;SDS011;9051;51.548;14.348;2022-08-19T03:16:26;17.70;;;16.02;;
17850;SDS011;9051;51.548;14.348;2022-08-19T03:19:01;19.17;;;16.55;;
17850;SDS011;9051;51.548;14.348;2022-08-19T03:21:33;18.65;;;16.88;;
17850;SDS011;9051;51.548;14.348;2022-08-19T03:24:07;17.27;;;15.68;;
17850;SDS011;9051;51.548;14.348;2022-08-19T03:26:41;16.85;;;15.27;;
17850;SDS011;9051;51.548;14.348;2022-08-19T03:29:15;18.02;;;16.38;;
17850;SDS011;9051;51.548;14.348;2022-08-19T03:31:47;19.05;;;17.05;;
17850;SDS011;9051;51.548;14.348;2022-08-19T03:34:21;18.20;;;16.40;;
17850;SDS011;9051;51.548;14.348;2022-08-19T03:36:57;17.65;;;16.02;;
17850;SDS011;9051;51.548;14.348;2022-08-19T03:39:34;17.90;;;16.10;;
17850;SDS011;9051;51.548;14.348;2022-08-19T03:42:09;17.83;;;16.13;;
17850;SDS011;9051;51.548;14.348;2022-08-19T03:44:41;17.25;;;15.45;;
17850;SDS011;9051;51.548;14.348;2022-08-19T03:47:14;17.25;;;15.52;;
17850;SDS011;9051;51.548;14.348;2022-08-19T03:49:46;15.85;;;14.45;;
17850;SDS011;9051;51.548;14.348;2022-08-19T03:52:18;17.70;;;16.00;;
17850;SDS011;9051;51.548;14.348;2022-08-19T03:54:50;16.30;;;14.70;;
17850;SDS011;9051;51.548;14.348;2022-08-19T03:57:24;16.55;;;15.05;;
17850;SDS011;9051;51.548;14.348;2022-08-19T03:59:55;17.17;;;15.55;;
17850;SDS011;9051;51.548;14.348;2022-08-19T04:02:27;15.88;;;14.23;;
17850;SDS011;9051;51.548;14.348;2022-08-19T04:04:59;15.30;;;13.90;;
17850;SDS011;9051;51.548;14.348;2022-08-19T04:07:31;15.27;;;13.77;;
17850;SDS011;9051;51.548;14.348;2022-08-19T04:10:03;15.32;;;14.02;;
17850;SDS011;9051;51.548;14.348;2022-08-19T04:12:37;16.40;;;14.80;;
17850;SDS011;9051;51.548;14.348;2022-08-19T04:15:09;17.63;;;14.63;;
17850;SDS011;9051;51.548;14.348;2022-08-19T04:17:42;15.40;;;13.98;;
17850;SDS011;9051;51.548;14.348;2022-08-19T04:20:13;16.27;;;14.68;;
17850;SDS011;9051;51.548;14.348;2022-08-19T04:22:45;15.52;;;14.05;;
17850;SDS011;9051;51.548;14.348;2022-08-19T04:25:17;16.05;;;14.57;;
17850;SDS011;9051;51.548;14.348;2022-08-19T04:27:50;14.93;;;13.52;;
17850;SDS011;9051;51.548;14.348;2022-08-19T04:30:22;15.07;;;13.48;;
17850;SDS011;9051;51.548;14.348;2022-08-19T04:32:54;15.90;;;14.40;;
17850;SDS011;9051;51.548;14.348;2022-08-19T04:35:26;15.55;;;14.00;;
17850;SDS011;9051;51.548;14.348;2022-08-19T04:37:58;16.13;;;14.63;;
17850;SDS011;9051;51.548;14.348;2022-08-19T04:40:30;15.07;;;13.57;;
17850;SDS011;9051;51.548;14.348;2022-08-19T04:43:20;16.05;;;14.55;;
17850;SDS011;9051;51.548;14.348;2022-08-19T04:45:52;16.52;;;15.02;;
17850;SDS011;9051;51.548;14.348;2022-08-19T04:48:24;17.38;;;15.65;;
17850;SDS011;9051;51.548;14.348;2022-08-19T04:50:57;17.35;;;15.77;;
17850;SDS011;9051;51.548;14.348;2022-08-19T04:53:30;17.60;;;15.80;;
17850;SDS011;9051;51.548;14.348;2022-08-19T04:56:04;18.10;;;16.40;;
17850;SDS011;9051;51.548;14.348;2022-08-19T04:58:41;17.58;;;15.98;;
17850;SDS011;9051;51.548;14.348;2022-08-19T05:01:17;18.00;;;16.30;;
17850;SDS011;9051;51.548;14.348;2022-08-19T05:03:50;17.58;;;15.98;;
17850;SDS011;9051;51.548;14.348;2022-08-19T05:06:22;19.10;;;17.33;;
17850;SDS011;9051;51.548;14.348;2022-08-19T05:08:55;19.23;;;17.33;;
17850;SDS011;9051;51.548;14.348;2022-08-19T05:11:28;18.92;;;17.23;;
17850;SDS011;9051;51.548;14.348;2022-08-19T05:14:03;18.73;;;16.48;;
17850;SDS011;9051;51.548;14.348;2022-08-19T05:16:35;18.67;;;16.88;;
17850;SDS011;9051;51.548;14.348;2022-08-19T05:19:06;19.27;;;17.48;;
17850;SDS011;9051;51.548;14.348;2022-08-19T05:21:57;18.75;;;16.98;;
17850;SDS011;9051;51.548;14.348;2022-08-19T05:24:47;20.58;;;18.52;;
17850;SDS011;9051;51.548;14.348;2022-08-19T05:27:19;23.38;;;21.08;;
17850;SDS011;9051;51.548;14.348;2022-08-19T05:29:53;24.25;;;21.80;;
17850;SDS011;9051;51.548;14.348;2022-08-19T05:32:24;25.95;;;23.38;;
17850;SDS011;9051;51.548;14.348;2022-08-19T05:34:56;26.35;;;23.77;;
17850;SDS011;9051;51.548;14.348;2022-08-19T05:37:28;25.52;;;23.08;;
17850;SDS011;9051;51.548;14.348;2022-08-19T05:40:00;24.60;;;22.02;;
17850;SDS011;9051;51.548;14.348;2022-08-19T05:42:32;23.40;;;20.80;;
17850;SDS011;9051;51.548;14.348;2022-08-19T05:45:07;23.23;;;21.02;;
17850;SDS011;9051;51.548;14.348;2022-08-19T05:47:39;22.17;;;20.05;;
17850;SDS011;9051;51.548;14.348;2022-08-19T05:50:11;22.80;;;20.65;;
17850;SDS011;9051;51.548;14.348;2022-08-19T05:52:43;25.08;;;22.42;;
17850;SDS011;9051;51.548;14.348;2022-08-19T05:55:15;26.25;;;23.70;;
17850;SDS011;9051;51.548;14.348;2022-08-19T05:57:50;24.27;;;21.88;;
17850;SDS011;9051;51.548;14.348;2022-08-19T06:00:23;24.10;;;21.77;;
17850;SDS011;9051;51.548;14.348;2022-08-19T06:02:55;24.58;;;21.15;;
17850;SDS011;9051;51.548;14.348;2022-08-19T06:05:30;23.67;;;21.23;;
17850;SDS011;9051;51.548;14.348;2022-08-19T06:08:03;24.58;;;22.20;;
17850;SDS011;9051;51.548;14.348;2022-08-19T06:10:38;21.90;;;19.80;;
17850;SDS011;9051;51.548;14.348;2022-08-19T06:13:10;21.52;;;19.52;;
17850;SDS011;9051;51.548;14.348;2022-08-19T06:15:44;21.25;;;19.00;;
17850;SDS011;9051;51.548;14.348;2022-08-19T06:18:16;20.15;;;18.15;;
17850;SDS011;9051;51.548;14.348;2022-08-19T06:20:48;21.23;;;19.10;;
17850;SDS011;9051;51.548;14.348;2022-08-19T06:23:20;20.75;;;18.65;;
17850;SDS011;9051;51.548;14.348;2022-08-19T06:25:52;21.73;;;19.63;;
17850;SDS011;9051;51.548;14.348;2022-08-19T06:28:24;20.10;;;18.13;;
17850;SDS011;9051;51.548;14.348;2022-08-19T06:30:57;20.80;;;18.75;;
17850;SDS011;9051;51.548;14.348;2022-08-19T06:33:31;20.98;;;18.88;;
17850;SDS011;9051;51.548;14.348;2022-08-19T06:36:03;21.73;;;19.55;;
17850;SDS011;9051;51.548;14.348;2022-08-19T06:38:36;20.58;;;18.58;;
17850;SDS011;9051;51.548;14.348;2022-08-19T06:41:07;20.67;;;18.83;;
17850;SDS011;9051;51.548;14.348;2022-08-19T06:43:40;20.02;;;18.17;;
17850;SDS011;9051;51.548;14.348;2022-08-19T06:46:15;21.08;;;19.08;;
17850;SDS011;9051;51.548;14.348;2022-08-19T06:48:48;20.48;;;18.45;;
17850;SDS011;9051;51.548;14.348;2022-08-19T06:51:23;19.38;;;17.48;;
17850;SDS011;9051;51.548;14.348;2022-08-19T06:53:56;20.65;;;18.65;;
17850;SDS011;9051;51.548;14.348;2022-08-19T06:56:28;20.13;;;18.15;;
17850;SDS011;9051;51.548;14.348;2022-08-19T06:59:04;22.23;;;19.90;;
17850;SDS011;9051;51.548;14.348;2022-08-19T07:01:39;19.92;;;18.13;;
17850;SDS011;9051;51.548;14.348;2022-08-19T07:04:12;20.48;;;18.42;;
17850;SDS011;9051;51.548;14.348;2022-08-19T07:06:46;19.58;;;17.58;;
17850;SDS011;9051;51.548;14.348;2022-08-19T07:09:19;18.77;;;17.08;;
17850;SDS011;9051;51.548;14.348;2022-08-19T07:11:51;18.63;;;16.92;;
17850;SDS011;9051;51.548;14.348;2022-08-19T07:14:26;20.50;;;18.40;;
17850;SDS011;9051;51.548;14.348;2022-08-19T07:17:01;20.35;;;18.45;;
17850;SDS011;9051;51.548;14.348;2022-08-19T07:19:34;20.38;;;18.38;;
17850;SDS011;9051;51.548;14.348;2022-08-19T07:22:07;20.77;;;18.77;;
17850;SDS011;9051;51.548;14.348;2022-08-19T07:24:39;20.40;;;18.35;;
17850;SDS011;9051;51.548;14.348;2022-08-19T07:27:13;20.83;;;18.92;;
17850;SDS011;9051;51.548;14.348;2022-08-19T07:29:46;22.90;;;20.70;;
17850;SDS011;9051;51.548;14.348;2022-08-19T07:32:19;22.40;;;20.42;;
17850;SDS011;9051;51.548;14.348;2022-08-19T07:34:51;22.90;;;20.73;;
17850;SDS011;9051;51.548;14.348;2022-08-19T07:37:23;24.25;;;21.80;;
17850;SDS011;9051;51.548;14.348;2022-08-19T07:39:56;23.90;;;21.73;;
17850;SDS011;9051;51.548;14.348;2022-08-19T07:42:28;24.90;;;22.45;;
17850;SDS011;9051;51.548;14.348;2022-08-19T07:45:01;25.10;;;22.60;;
17850;SDS011;9051;51.548;14.348;2022-08-19T07:47:35;25.17;;;21.70;;
17850;SDS011;9051;51.548;14.348;2022-08-19T07:50:08;25.85;;;23.23;;
17850;SDS011;9051;51.548;14.348;2022-08-19T07:52:42;23.98;;;21.67;;
17850;SDS011;9051;51.548;14.348;2022-08-19T07:55:15;23.17;;;21.08;;
17850;SDS011;9051;51.548;14.348;2022-08-19T07:57:49;25.38;;;22.63;;
17850;SDS011;9051;51.548;14.348;2022-08-19T08:00:23;23.75;;;21.38;;
17850;SDS011;9051;51.548;14.348;2022-08-19T08:02:57;23.05;;;20.65;;
17850;SDS011;9051;51.548;14.348;2022-08-19T08:05:29;23.17;;;20.98;;
17850;SDS011;9051;51.548;14.348;2022-08-19T08:08:18;22.88;;;20.52;;
17850;SDS011;9051;51.548;14.348;2022-08-19T08:11:08;23.05;;;20.45;;
17850;SDS011;9051;51.548;14.348;2022-08-19T08:13:41;21.20;;;19.10;;
17850;SDS011;9051;51.548;14.348;2022-08-19T08:16:13;21.73;;;19.73;;
17850;SDS011;9051;51.548;14.348;2022-08-19T08:18:46;22.95;;;20.77;;
17850;SDS011;9051;51.548;14.348;2022-08-19T08:21:19;21.13;;;19.13;;
17850;SDS011;9051;51.548;14.348;2022-08-19T08:23:51;22.05;;;19.85;;
17850;SDS011;9051;51.548;14.348;2022-08-19T08:26:26;20.83;;;18.83;;
17850;SDS011;9051;51.548;14.348;2022-08-19T08:28:58;21.20;;;19.10;;
17850;SDS011;9051;51.548;14.348;2022-08-19T08:31:31;20.05;;;18.13;;
17850;SDS011;9051;51.548;14.348;2022-08-19T08:34:06;22.77;;;20.67;;
17850;SDS011;9051;51.548;14.348;2022-08-19T08:36:40;21.17;;;19.08;;
17850;SDS011;9051;51.548;14.348;2022-08-19T08:39:16;20.00;;;17.85;;
17850;SDS011;9051;51.548;14.348;2022-08-19T08:41:52;21.33;;;19.23;;
17850;SDS011;9051;51.548;14.348;2022-08-19T08:44:31;21.45;;;19.25;;
17850;SDS011;9051;51.548;14.348;2022-08-19T08:47:17;19.08;;;17.13;;
17850;SDS011;9051;51.548;14.348;2022-08-19T08:49:53;20.42;;;18.42;;
17850;SDS011;9051;51.548;14.348;2022-08-19T08:52:31;21.88;;;19.77;;
17850;SDS011;9051;51.548;14.348;2022-08-19T08:55:07;19.38;;;17.58;;
17850;SDS011;9051;51.548;14.348;2022-08-19T08:57:43;19.60;;;17.80;;
17850;SDS011;9051;51.548;14.348;2022-08-19T09:00:25;19.90;;;17.80;;
17850;SDS011;9051;51.548;14.348;2022-08-19T09:03:00;20.02;;;17.67;;
17850;SDS011;9051;51.548;14.348;2022-08-19T09:05:38;19.40;;;17.50;;
17850;SDS011;9051;51.548;14.348;2022-08-19T09:08:18;19.75;;;17.88;;
17850;SDS011;9051;51.548;14.348;2022-08-19T09:10:56;17.60;;;15.90;;
17850;SDS011;9051;51.548;14.348;2022-08-19T09:13:29;17.88;;;16.23;;
17850;SDS011;9051;51.548;14.348;2022-08-19T09:16:09;19.08;;;17.25;;
17850;SDS011;9051;51.548;14.348;2022-08-19T09:18:45;17.77;;;16.17;;
17850;SDS011;9051;51.548;14.348;2022-08-19T09:21:20;19.35;;;17.42;;
17850;SDS011;9051;51.548;14.348;2022-08-19T09:23:53;17.88;;;16.08;;
17850;SDS011;9051;51.548;14.348;2022-08-19T09:26:26;18.35;;;16.55;;
17850;SDS011;9051;51.548;14.348;2022-08-19T09:28:58;17.95;;;15.50;;
17850;SDS011;9051;51.548;14.348;2022-08-19T09:31:32;16.33;;;14.77;;
17850;SDS011;9051;51.548;14.348;2022-08-19T09:34:04;17.70;;;16.00;;
17850;SDS011;9051;51.548;14.348;2022-08-19T09:36:37;18.08;;;16.42;;
17850;SDS011;9051;51.548;14.348;2022-08-19T09:39:09;17.35;;;15.70;;
17850;SDS011;9051;51.548;14.348;2022-08-19T09:41:42;17.20;;;15.63;;
17850;SDS011;9051;51.548;14.348;2022-08-19T09:44:15;17.17;;;15.38;;
17850;SDS011;9051;51.548;14.348;2022-08-19T09:46:50;17.30;;;15.52;;
17850;SDS011;9051;51.548;14.348;2022-08-19T09:49:22;16.83;;;15.32;;
17850;SDS011;9051;51.548;14.348;2022-08-19T09:51:56;17.02;;;15.35;;
17850;SDS011;9051;51.548;14.348;2022-08-19T09:54:28;17.15;;;15.63;;
17850;SDS011;9051;51.548;14.348;2022-08-19T09:57:00;16.63;;;15.15;;
17850;SDS011;9051;51.548;14.348;2022-08-19T09:59:33;17.17;;;15.40;;
17850;SDS011;9051;51.548;14.348;2022-08-19T10:02:05;17.70;;;15.95;;
17850;SDS011;9051;51.548;14.348;2022-08-19T10:04:37;17.48;;;15.88;;
17850;SDS011;9051;51.548;14.348;2022-08-19T10:07:28;16.30;;;14.80;;
17850;SDS011;9051;51.548;14.348;2022-08-19T10:10:01;17.10;;;15.50;;
17850;SDS011;9051;51.548;14.348;2022-08-19T10:12:33;16.33;;;14.73;;
17850;SDS011;9051;51.548;14.348;2022-08-19T10:15:06;17.13;;;15.52;;
17850;SDS011;9051;51.548;14.348;2022-08-19T10:17:39;16.35;;;14.90;;
17850;SDS011;9051;51.548;14.348;2022-08-19T10:20:11;17.10;;;15.35;;
17850;SDS011;9051;51.548;14.348;2022-08-19T10:22:45;17.42;;;15.70;;
17850;SDS011;9051;51.548;14.348;2022-08-19T10:25:17;16.88;;;15.27;;
17850;SDS011;9051;51.548;14.348;2022-08-19T10:27:49;16.48;;;14.88;;
17850;SDS011;9051;51.548;14.348;2022-08-19T10:30:21;16.70;;;15.25;;
17850;SDS011;9051;51.548;14.348;2022-08-19T10:32:53;16.48;;;14.88;;
17850;SDS011;9051;51.548;14.348;2022-08-19T10:35:25;16.60;;;15.20;;
17850;SDS011;9051;51.548;14.348;2022-08-19T10:38:00;17.88;;;16.23;;
17850;SDS011;9051;51.548;14.348;2022-08-19T10:40:33;18.13;;;16.38;;
17850;SDS011;9051;51.548;14.348;2022-08-19T10:43:05;16.67;;;15.02;;
17850;SDS011;9051;51.548;14.348;2022-08-19T10:45:37;18.00;;;16.27;;
17850;SDS011;9051;51.548;14.348;2022-08-19T10:48:09;16.83;;;15.23;;
17850;SDS011;9051;51.548;14.348;2022-08-19T10:50:42;18.73;;;17.02;;
17850;SDS011;9051;51.548;14.348;2022-08-19T10:53:33;19.77;;;17.90;;
17850;SDS011;9051;51.548;14.348;2022-08-19T10:56:05;18.67;;;16.98;;
17850;SDS011;9051;51.548;14.348;2022-08-19T10:58:54;18.48;;;16.75;;
17850;SDS011;9051;51.548;14.348;2022-08-19T11:01:28;19.83;;;17.92;;
17850;SDS011;9051;51.548;14.348;2022-08-19T11:04:01;18.80;;;17.05;;
17850;SDS011;9051;51.548;14.348;2022-08-19T11:06:34;19.10;;;17.35;;
17850;SDS011;9051;51.548;14.348;2022-08-19T11:09:09;20.15;;;18.35;;
17850;SDS011;9051;51.548;14.348;2022-08-19T11:11:42;19.10;;;17.27;;
17850;SDS011;9051;51.548;14.348;2022-08-19T11:14:16;18.35;;;16.75;;
17850;SDS011;9051;51.548;14.348;2022-08-19T11:16:50;18.33;;;16.63;;
17850;SDS011;9051;51.548;14.348;2022-08-19T11:19:25;20.00;;;18.17;;
17850;SDS011;9051;51.548;14.348;2022-08-19T11:21:57;18.92;;;17.27;;
17850;SDS011;9051;51.548;14.348;2022-08-19T11:24:34;18.52;;;16.77;;
17850;SDS011;9051;51.548;14.348;2022-08-19T11:27:07;18.67;;;16.92;;
17850;SDS011;9051;51.548;14.348;2022-08-19T11:29:41;18.85;;;17.17;;
17850;SDS011;9051;51.548;14.348;2022-08-19T11:32:13;18.63;;;16.83;;
17850;SDS011;9051;51.548;14.348;2022-08-19T11:34:45;18.88;;;17.00;;
17850;SDS011;9051;51.548;14.348;2022-08-19T11:37:19;18.40;;;16.70;;
17850;SDS011;9051;51.548;14.348;2022-08-19T11:39:52;18.52;;;16.83;;
17850;SDS011;9051;51.548;14.348;2022-08-19T11:42:24;17.30;;;15.85;;
17850;SDS011;9051;51.548;14.348;2022-08-19T11:45:14;18.70;;;17.02;;
17850;SDS011;9051;51.548;14.348;2022-08-19T11:47:46;17.67;;;16.10;;
17850;SDS011;9051;51.548;14.348;2022-08-19T11:50:19;18.00;;;16.35;;
17850;SDS011;9051;51.548;14.348;2022-08-19T11:52:53;17.02;;;15.43;;
17850;SDS011;9051;51.548;14.348;2022-08-19T11:55:27;17.08;;;15.60;;
17850;SDS011;9051;51.548;14.348;2022-08-19T11:57:59;17.90;;;16.10;;
17850;SDS011;9051;51.548;14.348;2022-08-19T12:00:37;17.13;;;15.63;;
17850;SDS011;9051;51.548;14.348;2022-08-19T12:03:09;16.63;;;15.02;;
17850;SDS011;9051;51.548;14.348;2022-08-19T12:05:42;16.50;;;15.02;;
17850;SDS011;9051;51.548;14.348;2022-08-19T12:08:14;17.05;;;15.55;;
17850;SDS011;9051;51.548;14.348;2022-08-19T12:10:47;16.20;;;14.70;;
17850;SDS011;9051;51.548;14.348;2022-08-19T12:13:20;15.88;;;14.50;;
17850;SDS011;9051;51.548;14.348;2022-08-19T12:15:52;15.85;;;14.38;;
17850;SDS011;9051;51.548;14.348;2022-08-19T12:18:24;17.35;;;15.50;;
17850;SDS011;9051;51.548;14.348;2022-08-19T12:20:56;16.23;;;14.82;;
17850;SDS011;9051;51.548;14.348;2022-08-19T12:23:30;17.48;;;15.98;;
17850;SDS011;9051;51.548;14.348;2022-08-19T12:26:03;16.60;;;15.20;;
17850;SDS011;9051;51.548;14.348;2022-08-19T12:28:36;16.92;;;15.38;;
17850;SDS011;9051;51.548;14.348;2022-08-19T12:31:09;17.23;;;15.63;;
17850;SDS011;9051;51.548;14.348;2022-08-19T12:33:42;16.45;;;14.95;;
17850;SDS011;9051;51.548;14.348;2022-08-19T12:36:14;18.30;;;16.65;;
17850;SDS011;9051;51.548;14.348;2022-08-19T12:38:48;18.02;;;16.25;;
17850;SDS011;9051;51.548;14.348;2022-08-19T12:41:22;18.35;;;16.70;;
17850;SDS011;9051;51.548;14.348;2022-08-19T12:43:55;18.25;;;16.63;;
17850;SDS011;9051;51.548;14.348;2022-08-19T12:46:29;17.92;;;16.42;;
17850;SDS011;9051;51.548;14.348;2022-08-19T12:49:01;16.92;;;15.45;;
17850;SDS011;9051;51.548;14.348;2022-08-19T12:51:33;19.15;;;17.48;;
17850;SDS011;9051;51.548;14.348;2022-08-19T12:54:05;20.25;;;18.35;;
17850;SDS011;9051;51.548;14.348;2022-08-19T12:56:38;20.20;;;18.13;;
17850;SDS011;9051;51.548;14.348;2022-08-19T12:59:11;20.70;;;18.70;;
17850;SDS011;9051;51.548;14.348;2022-08-19T13:01:44;21.05;;;18.95;;
17850;SDS011;9051;51.548;14.348;2022-08-19T13:04:16;20.85;;;18.85;;
17850;SDS011;9051;51.548;14.348;2022-08-19T13:06:48;20.10;;;18.30;;
17850;SDS011;9051;51.548;14.348;2022-08-19T13:09:21;20.10;;;18.25;;
17850;SDS011;9051;51.548;14.348;2022-08-19T13:11:54;21.60;;;19.60;;
17850;SDS011;9051;51.548;14.348;2022-08-19T13:14:26;20.40;;;18.50;;
17850;SDS011;9051;51.548;14.348;2022-08-19T13:17:01;21.90;;;19.90;;
17850;SDS011;9051;51.548;14.348;2022-08-19T13:19:35;21.88;;;19.77;;
17850;SDS011;9051;51.548;14.348;2022-08-19T13:22:10;22.30;;;20.15;;
17850;SDS011;9051;51.548;14.348;2022-08-19T13:24:43;22.60;;;20.38;;
17850;SDS011;9051;51.548;14.348;2022-08-19T13:27:17;23.73;;;21.17;;
17850;SDS011;9051;51.548;14.348;2022-08-19T13:29:49;22.77;;;20.58;;
17850;SDS011;9051;51.548;14.348;2022-08-19T13:32:38;23.30;;;20.75;;
17850;SDS011;9051;51.548;14.348;2022-08-19T13:35:29;22.88;;;20.45;;
17850;SDS011;9051;51.548;14.348;2022-08-19T13:38:01;26.05;;;23.35;;
17850;SDS011;9051;51.548;14.348;2022-08-19T13:40:34;24.08;;;21.75;;
17850;SDS011;9051;51.548;14.348;2022-08-19T13:43:09;25.17;;;22.67;;
17850;SDS011;9051;51.548;14.348;2022-08-19T13:45:41;26.35;;;23.63;;
17850;SDS011;9051;51.548;14.348;2022-08-19T13:48:13;27.60;;;24.58;;
17850;SDS011;9051;51.548;14.348;2022-08-19T13:50:45;28.13;;;25.40;;
17850;SDS011;9051;51.548;14.348;2022-08-19T13:53:18;27.80;;;25.02;;
17850;SDS011;9051;51.548;14.348;2022-08-19T13:55:50;25.80;;;23.15;;
17850;SDS011;9051;51.548;14.348;2022-08-19T13:58:25;24.98;;;22.30;;
17850;SDS011;9051;51.548;14.348;2022-08-19T14:00:57;24.80;;;22.40;;
17850;SDS011;9051;51.548;14.348;2022-08-19T14:03:31;25.58;;;21.58;;
17850;SDS011;9051;51.548;14.348;2022-08-19T14:06:04;26.23;;;20.98;;
17850;SDS011;9051;51.548;14.348;2022-08-19T14:08:36;24.17;;;21.67;;
17850;SDS011;9051;51.548;14.348;2022-08-19T14:11:09;22.63;;;20.33;;
17850;SDS011;9051;51.548;14.348;2022-08-19T14:13:43;23.17;;;19.95;;
17850;SDS011;9051;51.548;14.348;2022-08-19T14:16:16;23.05;;;20.70;;
17850;SDS011;9051;51.548;14.348;2022-08-19T14:18:48;21.63;;;19.45;;
17850;SDS011;9051;51.548;14.348;2022-08-19T14:21:21;21.23;;;18.85;;
17850;SDS011;9051;51.548;14.348;2022-08-19T14:23:55;20.50;;;18.40;;
17850;SDS011;9051;51.548;14.348;2022-08-19T14:26:27;22.45;;;20.05;;
17850;SDS011;9051;51.548;14.348;2022-08-19T14:29:01;20.98;;;18.88;;
17850;SDS011;9051;51.548;14.348;2022-08-19T14:31:33;23.13;;;20.73;;
17850;SDS011;9051;51.548;14.348;2022-08-19T14:34:05;24.05;;;21.55;;
17850;SDS011;9051;51.548;14.348;2022-08-19T14:36:37;22.67;;;20.27;;
17850;SDS011;9051;51.548;14.348;2022-08-19T14:39:10;23.30;;;20.80;;
17850;SDS011;9051;51.548;14.348;2022-08-19T14:41:42;23.40;;;20.92;;
17850;SDS011;9051;51.548;14.348;2022-08-19T14:44:16;23.67;;;21.17;;
17850;SDS011;9051;51.548;14.348;2022-08-19T14:46:48;22.65;;;20.10;;
17850;SDS011;9051;51.548;14.348;2022-08-19T14:49:20;24.05;;;21.52;;
17850;SDS011;9051;51.548;14.348;2022-08-19T14:51:53;23.63;;;21.08;;
17850;SDS011;9051;51.548;14.348;2022-08-19T14:54:25;24.38;;;20.90;;
17850;SDS011;9051;51.548;14.348;2022-08-19T14:56:57;23.85;;;21.02;;
17850;SDS011;9051;51.548;14.348;2022-08-19T14:59:30;24.83;;;22.23;;